sensor_id;sensor_type;location;lat;lon;timestamp;P1;durP1;ratioP1;P2;durP2;ratioP2
76850;SDS011;65824;43.726;20.692;2024-02-14T00:01:20;11.55;;;6.40;;
76850;SDS011;65824;43.726;20.692;2024-02-14T00:03:48;10.98;;;6.50;;
76850;SDS011;65824;43.726;20.692;2024-02-14T00:06:15;11.90;;;6.13;;
76850;SDS011;65824;43.726;20.692;2024-02-14T00:08:40;11.45;;;6.35;;
76850;SDS011;65824;43.726;20.692;2024-02-14T00:11:07;13.80;;;7.07;;
76850;SDS011;65824;43.726;20.692;2024-02-14T00:13:33;11.40;;;5.93;;
76850;SDS011;65824;43.726;20.692;2024-02-14T00:16:00;12.88;;;6.38;;
76850;SDS011;65824;43.726;20.692;2024-02-14T00:18:27;10.25;;;6.13;;
76850;SDS011;65824;43.726;20.692;2024-02-14T00:20:54;13.27;;;5.85;;
76850;SDS011;65824;43.726;20.692;2024-02-14T00:23:19;11.10;;;6.18;;
76850;SDS011;65824;43.726;20.692;2024-02-14T00:25:45;11.70;;;6.38;;
76850;SDS011;65824;43.726;20.692;2024-02-14T00:28:10;13.30;;;6.85;;
76850;SDS011;65824;43.726;20.692;2024-02-14T00:30:40;11.15;;;6.07;;
76850;SDS011;65824;43.726;20.692;2024-02-14T00:33:06;12.02;;;6.63;;
76850;SDS011;65824;43.726;20.692;2024-02-14T00:35:31;12.75;;;6.43;;
76850;SDS011;65824;43.726;20.692;2024-02-14T00:37:57;12.32;;;6.75;;
76850;SDS011;65824;43.726;20.692;2024-02-14T00:40:22;13.02;;;6.35;;
76850;SDS011;65824;43.726;20.692;2024-02-14T00:42:48;12.95;;;6.30;;
76850;SDS011;65824;43.726;20.692;2024-02-14T00:45:14;11.85;;;6.50;;
76850;SDS011;65824;43.726;20.692;2024-02-14T00:47:40;13.32;;;6.80;;
76850;SDS011;65824;43.726;20.692;2024-02-14T00:50:06;12.15;;;6.95;;
76850;SDS011;65824;43.726;20.692;2024-02-14T00:52:32;11.20;;;6.50;;
76850;SDS011;65824;43.726;20.692;2024-02-14T00:54:57;11.15;;;6.15;;
76850;SDS011;65824;43.726;20.692;2024-02-14T00:57:23;13.05;;;7.15;;
76850;SDS011;65824;43.726;20.692;2024-02-14T00:59:53;14.10;;;7.22;;
76850;SDS011;65824;43.726;20.692;2024-02-14T01:02:21;11.98;;;6.93;;
76850;SDS011;65824;43.726;20.692;2024-02-14T01:04:51;11.57;;;7.38;;
76850;SDS011;65824;43.726;20.692;2024-02-14T01:07:17;12.32;;;6.60;;
76850;SDS011;65824;43.726;20.692;2024-02-14T01:09:43;12.55;;;7.10;;
76850;SDS011;65824;43.726;20.692;2024-02-14T01:12:09;12.57;;;6.97;;
76850;SDS011;65824;43.726;20.692;2024-02-14T01:14:37;13.52;;;7.97;;
76850;SDS011;65824;43.726;20.692;2024-02-14T01:17:06;13.35;;;7.32;;
76850;SDS011;65824;43.726;20.692;2024-02-14T01:19:32;14.15;;;7.45;;
76850;SDS011;65824;43.726;20.692;2024-02-14T01:21:58;13.02;;;6.93;;
76850;SDS011;65824;43.726;20.692;2024-02-14T01:24:24;11.13;;;6.32;;
76850;SDS011;65824;43.726;20.692;2024-02-14T01:26:53;12.88;;;6.25;;
76850;SDS011;65824;43.726;20.692;2024-02-14T01:29:20;11.55;;;6.78;;
76850;SDS011;65824;43.726;20.692;2024-02-14T01:31:46;13.40;;;7.32;;
76850;SDS011;65824;43.726;20.692;2024-02-14T01:34:15;13.10;;;6.80;;
76850;SDS011;65824;43.726;20.692;2024-02-14T01:36:42;13.40;;;6.82;;
76850;SDS011;65824;43.726;20.692;2024-02-14T01:39:07;12.48;;;6.90;;
76850;SDS011;65824;43.726;20.692;2024-02-14T01:41:36;13.30;;;6.43;;
76850;SDS011;65824;43.726;20.692;2024-02-14T01:44:03;12.20;;;6.68;;
76850;SDS011;65824;43.726;20.692;2024-02-14T01:46:29;11.70;;;6.50;;
76850;SDS011;65824;43.726;20.692;2024-02-14T01:48:55;9.60;;;5.90;;
76850;SDS011;65824;43.726;20.692;2024-02-14T01:51:22;10.75;;;6.20;;
76850;SDS011;65824;43.726;20.692;2024-02-14T01:53:49;13.35;;;6.38;;
76850;SDS011;65824;43.726;20.692;2024-02-14T01:56:15;11.90;;;6.03;;
76850;SDS011;65824;43.726;20.692;2024-02-14T01:58:43;10.05;;;5.82;;
76850;SDS011;65824;43.726;20.692;2024-02-14T02:01:09;11.75;;;6.15;;
76850;SDS011;65824;43.726;20.692;2024-02-14T02:03:37;10.27;;;5.53;;
76850;SDS011;65824;43.726;20.692;2024-02-14T02:06:03;11.63;;;6.25;;
76850;SDS011;65824;43.726;20.692;2024-02-14T02:08:30;11.18;;;6.13;;
76850;SDS011;65824;43.726;20.692;2024-02-14T02:10:57;11.32;;;6.00;;
76850;SDS011;65824;43.726;20.692;2024-02-14T02:13:23;12.50;;;6.47;;
76850;SDS011;65824;43.726;20.692;2024-02-14T02:15:51;12.23;;;6.45;;
76850;SDS011;65824;43.726;20.692;2024-02-14T02:18:18;10.95;;;5.88;;
76850;SDS011;65824;43.726;20.692;2024-02-14T02:20:44;11.90;;;5.93;;
76850;SDS011;65824;43.726;20.692;2024-02-14T02:23:13;11.88;;;6.00;;
76850;SDS011;65824;43.726;20.692;2024-02-14T02:25:44;14.38;;;6.68;;
76850;SDS011;65824;43.726;20.692;2024-02-14T02:28:09;14.02;;;6.53;;
76850;SDS011;65824;43.726;20.692;2024-02-14T02:30:36;12.20;;;6.15;;
76850;SDS011;65824;43.726;20.692;2024-02-14T02:33:02;12.32;;;6.20;;
76850;SDS011;65824;43.726;20.692;2024-02-14T02:35:28;11.27;;;6.22;;
76850;SDS011;65824;43.726;20.692;2024-02-14T02:37:54;12.60;;;6.38;;
76850;SDS011;65824;43.726;20.692;2024-02-14T02:40:20;13.57;;;6.60;;
76850;SDS011;65824;43.726;20.692;2024-02-14T02:42:48;10.18;;;6.13;;
76850;SDS011;65824;43.726;20.692;2024-02-14T02:45:15;13.15;;;6.50;;
76850;SDS011;65824;43.726;20.692;2024-02-14T02:47:41;11.93;;;5.85;;
76850;SDS011;65824;43.726;20.692;2024-02-14T02:50:06;12.48;;;6.32;;
76850;SDS011;65824;43.726;20.692;2024-02-14T02:52:33;10.65;;;6.07;;
76850;SDS011;65824;43.726;20.692;2024-02-14T02:55:02;9.90;;;5.65;;
76850;SDS011;65824;43.726;20.692;2024-02-14T02:57:30;11.50;;;5.85;;
76850;SDS011;65824;43.726;20.692;2024-02-14T02:59:57;12.45;;;6.45;;
76850;SDS011;65824;43.726;20.692;2024-02-14T03:02:23;14.85;;;6.32;;
76850;SDS011;65824;43.726;20.692;2024-02-14T03:04:48;10.52;;;5.75;;
76850;SDS011;65824;43.726;20.692;2024-02-14T03:07:15;12.73;;;5.53;;
76850;SDS011;65824;43.726;20.692;2024-02-14T03:09:41;12.07;;;5.65;;
76850;SDS011;65824;43.726;20.692;2024-02-14T03:12:06;9.57;;;5.47;;
76850;SDS011;65824;43.726;20.692;2024-02-14T03:14:33;10.50;;;5.75;;
76850;SDS011;65824;43.726;20.692;2024-02-14T03:17:02;12.80;;;5.53;;
76850;SDS011;65824;43.726;20.692;2024-02-14T03:19:29;10.00;;;5.57;;
76850;SDS011;65824;43.726;20.692;2024-02-14T03:21:58;10.52;;;5.32;;
76850;SDS011;65824;43.726;20.692;2024-02-14T03:24:25;9.77;;;5.35;;
76850;SDS011;65824;43.726;20.692;2024-02-14T03:26:51;9.82;;;5.05;;
76850;SDS011;65824;43.726;20.692;2024-02-14T03:29:18;11.45;;;5.80;;
76850;SDS011;65824;43.726;20.692;2024-02-14T03:31:44;11.05;;;5.88;;
76850;SDS011;65824;43.726;20.692;2024-02-14T03:34:10;12.75;;;6.18;;
76850;SDS011;65824;43.726;20.692;2024-02-14T03:36:36;10.38;;;5.35;;
76850;SDS011;65824;43.726;20.692;2024-02-14T03:39:03;12.15;;;6.13;;
76850;SDS011;65824;43.726;20.692;2024-02-14T03:41:29;9.57;;;5.32;;
76850;SDS011;65824;43.726;20.692;2024-02-14T03:43:55;12.05;;;5.43;;
76850;SDS011;65824;43.726;20.692;2024-02-14T03:46:23;10.43;;;5.47;;
76850;SDS011;65824;43.726;20.692;2024-02-14T03:48:50;10.40;;;5.82;;
76850;SDS011;65824;43.726;20.692;2024-02-14T03:51:16;13.18;;;6.20;;
76850;SDS011;65824;43.726;20.692;2024-02-14T03:53:49;9.18;;;5.35;;
76850;SDS011;65824;43.726;20.692;2024-02-14T03:56:15;10.98;;;5.82;;
76850;SDS011;65824;43.726;20.692;2024-02-14T03:58:41;13.10;;;5.80;;
76850;SDS011;65824;43.726;20.692;2024-02-14T04:01:08;10.27;;;5.35;;
76850;SDS011;65824;43.726;20.692;2024-02-14T04:03:36;13.93;;;6.15;;
76850;SDS011;65824;43.726;20.692;2024-02-14T04:06:02;11.98;;;6.47;;
76850;SDS011;65824;43.726;20.692;2024-02-14T04:08:28;12.25;;;6.63;;
76850;SDS011;65824;43.726;20.692;2024-02-14T04:10:54;11.45;;;5.70;;
76850;SDS011;65824;43.726;20.692;2024-02-14T04:13:21;12.40;;;5.95;;
76850;SDS011;65824;43.726;20.692;2024-02-14T04:15:47;12.20;;;6.00;;
76850;SDS011;65824;43.726;20.692;2024-02-14T04:18:13;10.27;;;5.65;;
76850;SDS011;65824;43.726;20.692;2024-02-14T04:20:41;10.05;;;5.53;;
76850;SDS011;65824;43.726;20.692;2024-02-14T04:23:09;11.35;;;5.68;;
76850;SDS011;65824;43.726;20.692;2024-02-14T04:25:37;11.07;;;5.95;;
76850;SDS011;65824;43.726;20.692;2024-02-14T04:28:03;12.07;;;6.07;;
76850;SDS011;65824;43.726;20.692;2024-02-14T04:30:30;10.73;;;5.68;;
76850;SDS011;65824;43.726;20.692;2024-02-14T04:32:56;10.32;;;5.88;;
76850;SDS011;65824;43.726;20.692;2024-02-14T04:35:21;8.68;;;5.53;;
76850;SDS011;65824;43.726;20.692;2024-02-14T04:37:48;9.75;;;5.97;;
76850;SDS011;65824;43.726;20.692;2024-02-14T04:40:14;9.80;;;5.07;;
76850;SDS011;65824;43.726;20.692;2024-02-14T04:42:40;10.73;;;5.70;;
76850;SDS011;65824;43.726;20.692;2024-02-14T04:45:06;10.00;;;5.75;;
76850;SDS011;65824;43.726;20.692;2024-02-14T04:47:33;9.52;;;5.40;;
76850;SDS011;65824;43.726;20.692;2024-02-14T04:49:59;10.88;;;5.88;;
76850;SDS011;65824;43.726;20.692;2024-02-14T04:52:26;10.05;;;5.40;;
76850;SDS011;65824;43.726;20.692;2024-02-14T04:54:52;9.77;;;5.50;;
76850;SDS011;65824;43.726;20.692;2024-02-14T04:57:17;10.95;;;5.40;;
76850;SDS011;65824;43.726;20.692;2024-02-14T04:59:45;10.00;;;5.25;;
76850;SDS011;65824;43.726;20.692;2024-02-14T05:02:10;10.00;;;5.40;;
76850;SDS011;65824;43.726;20.692;2024-02-14T05:04:36;8.88;;;5.15;;
76850;SDS011;65824;43.726;20.692;2024-02-14T05:07:03;10.82;;;5.45;;
76850;SDS011;65824;43.726;20.692;2024-02-14T05:09:29;9.43;;;5.07;;
76850;SDS011;65824;43.726;20.692;2024-02-14T05:11:55;10.20;;;5.50;;
76850;SDS011;65824;43.726;20.692;2024-02-14T05:14:20;9.35;;;5.30;;
76850;SDS011;65824;43.726;20.692;2024-02-14T05:16:46;10.50;;;5.53;;
76850;SDS011;65824;43.726;20.692;2024-02-14T05:19:13;10.55;;;5.60;;
76850;SDS011;65824;43.726;20.692;2024-02-14T05:21:39;10.48;;;5.55;;
76850;SDS011;65824;43.726;20.692;2024-02-14T05:24:05;10.45;;;5.45;;
76850;SDS011;65824;43.726;20.692;2024-02-14T05:26:31;11.48;;;5.28;;
76850;SDS011;65824;43.726;20.692;2024-02-14T05:28:57;12.55;;;6.00;;
76850;SDS011;65824;43.726;20.692;2024-02-14T05:31:24;12.57;;;5.63;;
76850;SDS011;65824;43.726;20.692;2024-02-14T05:33:50;12.20;;;6.10;;
76850;SDS011;65824;43.726;20.692;2024-02-14T05:36:15;10.52;;;5.28;;
76850;SDS011;65824;43.726;20.692;2024-02-14T05:38:40;11.27;;;5.63;;
76850;SDS011;65824;43.726;20.692;2024-02-14T05:41:06;9.20;;;4.93;;
76850;SDS011;65824;43.726;20.692;2024-02-14T05:43:33;10.18;;;5.03;;
76850;SDS011;65824;43.726;20.692;2024-02-14T05:45:59;10.88;;;5.38;;
76850;SDS011;65824;43.726;20.692;2024-02-14T05:48:29;9.35;;;5.47;;
76850;SDS011;65824;43.726;20.692;2024-02-14T05:50:54;11.25;;;6.10;;
76850;SDS011;65824;43.726;20.692;2024-02-14T05:53:20;11.32;;;6.25;;
76850;SDS011;65824;43.726;20.692;2024-02-14T05:55:48;10.80;;;6.05;;
76850;SDS011;65824;43.726;20.692;2024-02-14T05:58:14;12.05;;;5.80;;
76850;SDS011;65824;43.726;20.692;2024-02-14T06:00:40;11.13;;;5.97;;
76850;SDS011;65824;43.726;20.692;2024-02-14T06:03:06;13.00;;;6.10;;
76850;SDS011;65824;43.726;20.692;2024-02-14T06:05:31;12.57;;;5.97;;
76850;SDS011;65824;43.726;20.692;2024-02-14T06:07:58;10.48;;;5.30;;
76850;SDS011;65824;43.726;20.692;2024-02-14T06:10:23;11.68;;;6.00;;
76850;SDS011;65824;43.726;20.692;2024-02-14T06:12:50;8.93;;;5.15;;
76850;SDS011;65824;43.726;20.692;2024-02-14T06:15:16;10.30;;;6.10;;
76850;SDS011;65824;43.726;20.692;2024-02-14T06:17:41;10.18;;;5.57;;
76850;SDS011;65824;43.726;20.692;2024-02-14T06:20:07;10.68;;;5.65;;
76850;SDS011;65824;43.726;20.692;2024-02-14T06:22:34;9.10;;;5.30;;
76850;SDS011;65824;43.726;20.692;2024-02-14T06:25:02;9.48;;;5.32;;
76850;SDS011;65824;43.726;20.692;2024-02-14T06:27:29;11.98;;;5.68;;
76850;SDS011;65824;43.726;20.692;2024-02-14T06:29:55;11.07;;;5.50;;
76850;SDS011;65824;43.726;20.692;2024-02-14T06:32:22;13.05;;;5.63;;
76850;SDS011;65824;43.726;20.692;2024-02-14T06:34:47;10.57;;;5.68;;
76850;SDS011;65824;43.726;20.692;2024-02-14T06:37:13;11.57;;;5.80;;
76850;SDS011;65824;43.726;20.692;2024-02-14T06:39:39;12.88;;;5.80;;
76850;SDS011;65824;43.726;20.692;2024-02-14T06:42:04;13.30;;;5.80;;
76850;SDS011;65824;43.726;20.692;2024-02-14T06:44:31;12.27;;;6.55;;
76850;SDS011;65824;43.726;20.692;2024-02-14T06:46:56;12.88;;;6.75;;
76850;SDS011;65824;43.726;20.692;2024-02-14T06:49:22;11.57;;;6.10;;
76850;SDS011;65824;43.726;20.692;2024-02-14T06:51:48;12.02;;;5.88;;
76850;SDS011;65824;43.726;20.692;2024-02-14T06:54:13;10.85;;;6.38;;
76850;SDS011;65824;43.726;20.692;2024-02-14T06:56:39;21.70;;;11.52;;
76850;SDS011;65824;43.726;20.692;2024-02-14T06:59:04;11.35;;;6.00;;
76850;SDS011;65824;43.726;20.692;2024-02-14T07:01:30;14.65;;;6.60;;
76850;SDS011;65824;43.726;20.692;2024-02-14T07:03:58;13.88;;;6.80;;
76850;SDS011;65824;43.726;20.692;2024-02-14T07:06:25;12.55;;;6.05;;
76850;SDS011;65824;43.726;20.692;2024-02-14T07:08:50;10.02;;;5.53;;
76850;SDS011;65824;43.726;20.692;2024-02-14T07:11:16;10.93;;;5.68;;
76850;SDS011;65824;43.726;20.692;2024-02-14T07:13:42;10.20;;;5.60;;
76850;SDS011;65824;43.726;20.692;2024-02-14T07:16:08;10.02;;;5.28;;
76850;SDS011;65824;43.726;20.692;2024-02-14T07:18:34;11.57;;;5.88;;
76850;SDS011;65824;43.726;20.692;2024-02-14T07:20:59;10.52;;;5.60;;
76850;SDS011;65824;43.726;20.692;2024-02-14T07:23:26;12.23;;;6.00;;
76850;SDS011;65824;43.726;20.692;2024-02-14T07:25:52;26.67;;;13.23;;
76850;SDS011;65824;43.726;20.692;2024-02-14T07:28:18;16.25;;;7.70;;
76850;SDS011;65824;43.726;20.692;2024-02-14T07:30:44;15.18;;;7.97;;
76850;SDS011;65824;43.726;20.692;2024-02-14T07:33:09;11.00;;;6.22;;
76850;SDS011;65824;43.726;20.692;2024-02-14T07:35:36;11.93;;;5.70;;
76850;SDS011;65824;43.726;20.692;2024-02-14T07:38:02;16.35;;;8.27;;
76850;SDS011;65824;43.726;20.692;2024-02-14T07:40:27;13.50;;;7.35;;
76850;SDS011;65824;43.726;20.692;2024-02-14T07:42:56;11.88;;;5.93;;
76850;SDS011;65824;43.726;20.692;2024-02-14T07:45:22;11.15;;;5.65;;
76850;SDS011;65824;43.726;20.692;2024-02-14T07:47:51;9.85;;;5.88;;
76850;SDS011;65824;43.726;20.692;2024-02-14T07:50:16;11.43;;;6.25;;
76850;SDS011;65824;43.726;20.692;2024-02-14T07:52:43;12.30;;;6.60;;
76850;SDS011;65824;43.726;20.692;2024-02-14T07:55:09;15.23;;;7.40;;
76850;SDS011;65824;43.726;20.692;2024-02-14T07:57:37;12.23;;;7.03;;
76850;SDS011;65824;43.726;20.692;2024-02-14T08:00:04;14.55;;;6.55;;
76850;SDS011;65824;43.726;20.692;2024-02-14T08:02:33;13.52;;;7.22;;
76850;SDS011;65824;43.726;20.692;2024-02-14T08:04:59;14.15;;;7.55;;
76850;SDS011;65824;43.726;20.692;2024-02-14T08:07:27;12.65;;;6.80;;
76850;SDS011;65824;43.726;20.692;2024-02-14T08:09:54;13.68;;;6.60;;
76850;SDS011;65824;43.726;20.692;2024-02-14T08:12:20;10.40;;;5.68;;
76850;SDS011;65824;43.726;20.692;2024-02-14T08:14:46;11.25;;;6.40;;
76850;SDS011;65824;43.726;20.692;2024-02-14T08:17:14;13.75;;;6.10;;
76850;SDS011;65824;43.726;20.692;2024-02-14T08:19:39;11.95;;;5.40;;
76850;SDS011;65824;43.726;20.692;2024-02-14T08:22:05;10.85;;;6.05;;
76850;SDS011;65824;43.726;20.692;2024-02-14T08:24:32;11.45;;;5.68;;
76850;SDS011;65824;43.726;20.692;2024-02-14T08:26:58;10.90;;;5.75;;
76850;SDS011;65824;43.726;20.692;2024-02-14T08:29:26;12.55;;;5.82;;
76850;SDS011;65824;43.726;20.692;2024-02-14T08:31:52;11.90;;;5.53;;
76850;SDS011;65824;43.726;20.692;2024-02-14T08:34:18;10.63;;;5.55;;
76850;SDS011;65824;43.726;20.692;2024-02-14T08:36:45;11.55;;;5.90;;
76850;SDS011;65824;43.726;20.692;2024-02-14T08:39:10;11.30;;;6.13;;
76850;SDS011;65824;43.726;20.692;2024-02-14T08:41:37;10.57;;;5.22;;
76850;SDS011;65824;43.726;20.692;2024-02-14T08:44:08;8.68;;;5.25;;
76850;SDS011;65824;43.726;20.692;2024-02-14T08:46:35;8.90;;;4.80;;
76850;SDS011;65824;43.726;20.692;2024-02-14T08:49:01;9.50;;;5.97;;
76850;SDS011;65824;43.726;20.692;2024-02-14T08:51:36;10.43;;;5.40;;
76850;SDS011;65824;43.726;20.692;2024-02-14T08:54:06;10.32;;;5.10;;
76850;SDS011;65824;43.726;20.692;2024-02-14T08:56:32;8.25;;;5.15;;
76850;SDS011;65824;43.726;20.692;2024-02-14T08:59:02;11.73;;;5.80;;
76850;SDS011;65824;43.726;20.692;2024-02-14T09:01:30;10.68;;;5.72;;
76850;SDS011;65824;43.726;20.692;2024-02-14T09:03:56;10.10;;;5.07;;
76850;SDS011;65824;43.726;20.692;2024-02-14T09:06:22;10.35;;;5.30;;
76850;SDS011;65824;43.726;20.692;2024-02-14T09:08:47;12.35;;;6.15;;
76850;SDS011;65824;43.726;20.692;2024-02-14T09:11:13;11.68;;;5.65;;
76850;SDS011;65824;43.726;20.692;2024-02-14T09:13:39;12.98;;;5.55;;
76850;SDS011;65824;43.726;20.692;2024-02-14T09:16:11;10.35;;;5.40;;
76850;SDS011;65824;43.726;20.692;2024-02-14T09:18:38;9.88;;;5.85;;
76850;SDS011;65824;43.726;20.692;2024-02-14T09:21:03;8.75;;;4.93;;
76850;SDS011;65824;43.726;20.692;2024-02-14T09:23:30;10.32;;;5.88;;
76850;SDS011;65824;43.726;20.692;2024-02-14T09:25:56;10.93;;;5.57;;
76850;SDS011;65824;43.726;20.692;2024-02-14T09:28:24;10.95;;;5.82;;
76850;SDS011;65824;43.726;20.692;2024-02-14T09:30:51;10.75;;;6.07;;
76850;SDS011;65824;43.726;20.692;2024-02-14T09:33:17;12.75;;;5.93;;
76850;SDS011;65824;43.726;20.692;2024-02-14T09:35:45;9.45;;;5.72;;
76850;SDS011;65824;43.726;20.692;2024-02-14T09:38:13;11.50;;;5.82;;
76850;SDS011;65824;43.726;20.692;2024-02-14T09:40:42;9.00;;;5.00;;
76850;SDS011;65824;43.726;20.692;2024-02-14T09:45:40;10.80;;;4.88;;
76850;SDS011;65824;43.726;20.692;2024-02-14T09:48:08;9.60;;;5.22;;
76850;SDS011;65824;43.726;20.692;2024-02-14T09:50:34;10.35;;;4.75;;
76850;SDS011;65824;43.726;20.692;2024-02-14T09:53:02;8.77;;;4.88;;
76850;SDS011;65824;43.726;20.692;2024-02-14T09:55:27;11.68;;;5.28;;
76850;SDS011;65824;43.726;20.692;2024-02-14T09:57:55;10.68;;;5.18;;
76850;SDS011;65824;43.726;20.692;2024-02-14T10:00:21;14.35;;;4.80;;
76850;SDS011;65824;43.726;20.692;2024-02-14T10:02:47;10.40;;;4.95;;
76850;SDS011;65824;43.726;20.692;2024-02-14T10:05:13;7.97;;;4.43;;
76850;SDS011;65824;43.726;20.692;2024-02-14T10:07:42;9.30;;;4.65;;
76850;SDS011;65824;43.726;20.692;2024-02-14T10:10:08;12.00;;;4.90;;
76850;SDS011;65824;43.726;20.692;2024-02-14T10:12:36;12.05;;;4.97;;
76850;SDS011;65824;43.726;20.692;2024-02-14T10:15:03;8.93;;;4.50;;
76850;SDS011;65824;43.726;20.692;2024-02-14T10:17:32;8.82;;;5.03;;
76850;SDS011;65824;43.726;20.692;2024-02-14T10:19:58;10.68;;;5.45;;
76850;SDS011;65824;43.726;20.692;2024-02-14T10:22:36;9.85;;;5.13;;
76850;SDS011;65824;43.726;20.692;2024-02-14T10:25:03;9.88;;;4.70;;
76850;SDS011;65824;43.726;20.692;2024-02-14T10:27:34;7.40;;;4.30;;
76850;SDS011;65824;43.726;20.692;2024-02-14T10:30:09;9.10;;;4.80;;
76850;SDS011;65824;43.726;20.692;2024-02-14T10:32:41;9.48;;;4.75;;
76850;SDS011;65824;43.726;20.692;2024-02-14T10:35:12;11.25;;;4.95;;
76850;SDS011;65824;43.726;20.692;2024-02-14T10:37:41;12.27;;;5.18;;
76850;SDS011;65824;43.726;20.692;2024-02-14T10:40:07;7.90;;;4.57;;
76850;SDS011;65824;43.726;20.692;2024-02-14T10:42:37;8.75;;;4.95;;
76850;SDS011;65824;43.726;20.692;2024-02-14T10:45:02;12.93;;;5.68;;
76850;SDS011;65824;43.726;20.692;2024-02-14T10:47:34;12.68;;;5.20;;
76850;SDS011;65824;43.726;20.692;2024-02-14T10:50:02;12.23;;;4.88;;
76850;SDS011;65824;43.726;20.692;2024-02-14T10:52:36;11.98;;;5.43;;
76850;SDS011;65824;43.726;20.692;2024-02-14T10:55:05;8.90;;;5.22;;
76850;SDS011;65824;43.726;20.692;2024-02-14T10:57:32;10.18;;;4.85;;
76850;SDS011;65824;43.726;20.692;2024-02-14T11:00:03;10.10;;;4.75;;
76850;SDS011;65824;43.726;20.692;2024-02-14T11:02:32;10.13;;;4.60;;
76850;SDS011;65824;43.726;20.692;2024-02-14T11:05:02;10.23;;;4.45;;
76850;SDS011;65824;43.726;20.692;2024-02-14T11:07:28;8.48;;;4.50;;
76850;SDS011;65824;43.726;20.692;2024-02-14T11:10:04;8.27;;;4.78;;
76850;SDS011;65824;43.726;20.692;2024-02-14T11:12:32;11.77;;;5.22;;
76850;SDS011;65824;43.726;20.692;2024-02-14T11:15:08;9.73;;;4.55;;
76850;SDS011;65824;43.726;20.692;2024-02-14T11:17:44;9.82;;;5.03;;
76850;SDS011;65824;43.726;20.692;2024-02-14T11:20:30;10.45;;;4.93;;
76850;SDS011;65824;43.726;20.692;2024-02-14T11:23:00;8.85;;;4.88;;
76850;SDS011;65824;43.726;20.692;2024-02-14T11:25:31;10.70;;;5.43;;
76850;SDS011;65824;43.726;20.692;2024-02-14T11:27:59;12.35;;;5.47;;
76850;SDS011;65824;43.726;20.692;2024-02-14T11:30:33;9.07;;;4.50;;
76850;SDS011;65824;43.726;20.692;2024-02-14T11:35:48;10.43;;;4.90;;
76850;SDS011;65824;43.726;20.692;2024-02-14T11:38:18;12.40;;;6.15;;
76850;SDS011;65824;43.726;20.692;2024-02-14T11:40:48;10.38;;;4.90;;
76850;SDS011;65824;43.726;20.692;2024-02-14T11:43:15;8.63;;;4.68;;
76850;SDS011;65824;43.726;20.692;2024-02-14T11:45:48;10.32;;;5.22;;
76850;SDS011;65824;43.726;20.692;2024-02-14T11:48:20;9.80;;;4.70;;
76850;SDS011;65824;43.726;20.692;2024-02-14T11:50:46;9.43;;;4.43;;
76850;SDS011;65824;43.726;20.692;2024-02-14T11:53:12;13.38;;;4.95;;
76850;SDS011;65824;43.726;20.692;2024-02-14T11:55:41;8.75;;;4.78;;
76850;SDS011;65824;43.726;20.692;2024-02-14T11:58:10;9.65;;;5.22;;
76850;SDS011;65824;43.726;20.692;2024-02-14T12:00:40;10.10;;;5.05;;
76850;SDS011;65824;43.726;20.692;2024-02-14T12:03:29;7.28;;;4.50;;
76850;SDS011;65824;43.726;20.692;2024-02-14T12:05:55;10.57;;;5.00;;
76850;SDS011;65824;43.726;20.692;2024-02-14T12:08:22;10.95;;;5.22;;
76850;SDS011;65824;43.726;20.692;2024-02-14T12:10:51;9.65;;;4.60;;
76850;SDS011;65824;43.726;20.692;2024-02-14T12:13:21;8.50;;;3.90;;
76850;SDS011;65824;43.726;20.692;2024-02-14T12:15:47;8.73;;;4.07;;
76850;SDS011;65824;43.726;20.692;2024-02-14T12:18:14;8.60;;;4.45;;
76850;SDS011;65824;43.726;20.692;2024-02-14T12:20:41;9.25;;;4.97;;
76850;SDS011;65824;43.726;20.692;2024-02-14T12:23:08;9.65;;;4.95;;
76850;SDS011;65824;43.726;20.692;2024-02-14T12:25:38;9.48;;;4.80;;
76850;SDS011;65824;43.726;20.692;2024-02-14T12:28:04;9.00;;;4.90;;
76850;SDS011;65824;43.726;20.692;2024-02-14T12:33:17;10.98;;;5.18;;
76850;SDS011;65824;43.726;20.692;2024-02-14T12:35:53;12.13;;;4.68;;
76850;SDS011;65824;43.726;20.692;2024-02-14T12:38:32;10.13;;;5.47;;
76850;SDS011;65824;43.726;20.692;2024-02-14T12:40:58;11.32;;;4.80;;
76850;SDS011;65824;43.726;20.692;2024-02-14T12:43:25;10.15;;;4.65;;
76850;SDS011;65824;43.726;20.692;2024-02-14T12:45:50;10.20;;;4.97;;
76850;SDS011;65824;43.726;20.692;2024-02-14T12:48:22;10.65;;;5.07;;
76850;SDS011;65824;43.726;20.692;2024-02-14T12:50:52;12.27;;;5.35;;
76850;SDS011;65824;43.726;20.692;2024-02-14T12:53:19;9.73;;;5.40;;
76850;SDS011;65824;43.726;20.692;2024-02-14T12:55:46;9.13;;;4.20;;
76850;SDS011;65824;43.726;20.692;2024-02-14T12:58:14;9.32;;;4.75;;
76850;SDS011;65824;43.726;20.692;2024-02-14T13:00:40;11.57;;;4.32;;
76850;SDS011;65824;43.726;20.692;2024-02-14T13:03:07;9.43;;;4.30;;
76850;SDS011;65824;43.726;20.692;2024-02-14T13:05:35;8.75;;;4.15;;
76850;SDS011;65824;43.726;20.692;2024-02-14T13:08:01;9.45;;;5.03;;
76850;SDS011;65824;43.726;20.692;2024-02-14T13:10:30;9.02;;;4.60;;
76850;SDS011;65824;43.726;20.692;2024-02-14T13:12:56;7.20;;;4.03;;
76850;SDS011;65824;43.726;20.692;2024-02-14T13:15:22;7.95;;;4.80;;
76850;SDS011;65824;43.726;20.692;2024-02-14T13:17:47;6.90;;;4.38;;
76850;SDS011;65824;43.726;20.692;2024-02-14T13:20:14;6.82;;;3.83;;
76850;SDS011;65824;43.726;20.692;2024-02-14T13:22:40;7.30;;;4.65;;
76850;SDS011;65824;43.726;20.692;2024-02-14T13:25:08;7.25;;;4.22;;
76850;SDS011;65824;43.726;20.692;2024-02-14T13:27:34;8.25;;;4.68;;
76850;SDS011;65824;43.726;20.692;2024-02-14T13:30:00;8.43;;;3.85;;
76850;SDS011;65824;43.726;20.692;2024-02-14T13:32:29;9.85;;;4.20;;
76850;SDS011;65824;43.726;20.692;2024-02-14T13:34:55;8.63;;;4.47;;
76850;SDS011;65824;43.726;20.692;2024-02-14T13:37:20;6.18;;;3.88;;
76850;SDS011;65824;43.726;20.692;2024-02-14T13:39:46;7.03;;;4.00;;
76850;SDS011;65824;43.726;20.692;2024-02-14T13:42:14;8.48;;;4.35;;
76850;SDS011;65824;43.726;20.692;2024-02-14T13:44:40;6.50;;;3.95;;
76850;SDS011;65824;43.726;20.692;2024-02-14T13:47:06;8.30;;;3.92;;
76850;SDS011;65824;43.726;20.692;2024-02-14T13:49:31;8.90;;;4.63;;
76850;SDS011;65824;43.726;20.692;2024-02-14T13:51:57;8.02;;;3.97;;
76850;SDS011;65824;43.726;20.692;2024-02-14T13:54:24;9.05;;;4.10;;
76850;SDS011;65824;43.726;20.692;2024-02-14T13:56:51;9.70;;;5.32;;
76850;SDS011;65824;43.726;20.692;2024-02-14T13:59:20;8.52;;;4.63;;
76850;SDS011;65824;43.726;20.692;2024-02-14T14:01:45;8.50;;;4.63;;
76850;SDS011;65824;43.726;20.692;2024-02-14T14:04:12;10.20;;;4.20;;
76850;SDS011;65824;43.726;20.692;2024-02-14T14:06:37;10.45;;;4.50;;
76850;SDS011;65824;43.726;20.692;2024-02-14T14:09:04;8.70;;;4.55;;
76850;SDS011;65824;43.726;20.692;2024-02-14T14:11:32;10.25;;;5.40;;
76850;SDS011;65824;43.726;20.692;2024-02-14T14:13:59;8.52;;;5.18;;
76850;SDS011;65824;43.726;20.692;2024-02-14T14:16:25;7.95;;;4.40;;
76850;SDS011;65824;43.726;20.692;2024-02-14T14:18:51;8.43;;;4.47;;
76850;SDS011;65824;43.726;20.692;2024-02-14T14:21:17;9.52;;;4.20;;
76850;SDS011;65824;43.726;20.692;2024-02-14T14:23:43;7.25;;;4.25;;
76850;SDS011;65824;43.726;20.692;2024-02-14T14:26:09;9.70;;;4.85;;
76850;SDS011;65824;43.726;20.692;2024-02-14T14:28:35;8.02;;;4.65;;
76850;SDS011;65824;43.726;20.692;2024-02-14T14:31:01;9.20;;;4.88;;
76850;SDS011;65824;43.726;20.692;2024-02-14T14:33:27;8.45;;;4.50;;